sensor_id;sensor_type;location;lat;lon;timestamp;P1;durP1;ratioP1;P2;durP2;ratioP2
16543;SDS011;8384;47.996;7.786;2023-03-04T00:00:51;59.53;;;53.33;;
16543;SDS011;8384;47.996;7.786;2023-03-04T00:03:16;55.37;;;49.20;;
16543;SDS011;8384;47.996;7.786;2023-03-04T00:05:41;55.40;;;49.50;;
16543;SDS011;8384;47.996;7.786;2023-03-04T00:08:07;52.67;;;46.87;;
16543;SDS011;8384;47.996;7.786;2023-03-04T00:10:32;54.70;;;48.73;;
16543;SDS011;8384;47.996;7.786;2023-03-04T00:12:57;53.23;;;47.43;;
16543;SDS011;8384;47.996;7.786;2023-03-04T00:15:22;54.47;;;48.57;;
16543;SDS011;8384;47.996;7.786;2023-03-04T00:17:48;52.73;;;47.10;;
16543;SDS011;8384;47.996;7.786;2023-03-04T00:20:13;52.90;;;47.20;;
16543;SDS011;8384;47.996;7.786;2023-03-04T00:22:39;52.83;;;47.20;;
16543;SDS011;8384;47.996;7.786;2023-03-04T00:25:04;54.55;;;48.75;;
16543;SDS011;8384;47.996;7.786;2023-03-04T00:27:30;52.87;;;47.37;;
16543;SDS011;8384;47.996;7.786;2023-03-04T00:29:55;52.07;;;46.50;;
16543;SDS011;8384;47.996;7.786;2023-03-04T00:32:20;51.45;;;45.97;;
16543;SDS011;8384;47.996;7.786;2023-03-04T00:34:46;53.17;;;47.53;;
16543;SDS011;8384;47.996;7.786;2023-03-04T00:37:11;52.83;;;47.23;;
16543;SDS011;8384;47.996;7.786;2023-03-04T00:39:36;52.07;;;46.57;;
16543;SDS011;8384;47.996;7.786;2023-03-04T00:42:02;52.30;;;46.73;;
16543;SDS011;8384;47.996;7.786;2023-03-04T00:44:27;52.90;;;47.27;;
16543;SDS011;8384;47.996;7.786;2023-03-04T00:46:52;52.37;;;46.90;;
16543;SDS011;8384;47.996;7.786;2023-03-04T00:49:18;51.97;;;46.57;;
16543;SDS011;8384;47.996;7.786;2023-03-04T00:51:43;52.22;;;46.20;;
16543;SDS011;8384;47.996;7.786;2023-03-04T00:54:08;52.55;;;47.03;;
16543;SDS011;8384;47.996;7.786;2023-03-04T00:56:33;52.10;;;46.60;;
16543;SDS011;8384;47.996;7.786;2023-03-04T00:58:59;52.75;;;46.63;;
16543;SDS011;8384;47.996;7.786;2023-03-04T01:01:24;52.07;;;46.37;;
16543;SDS011;8384;47.996;7.786;2023-03-04T01:03:49;56.17;;;50.20;;
16543;SDS011;8384;47.996;7.786;2023-03-04T01:06:14;53.87;;;48.03;;
16543;SDS011;8384;47.996;7.786;2023-03-04T01:08:40;65.23;;;57.03;;
16543;SDS011;8384;47.996;7.786;2023-03-04T01:11:05;61.70;;;52.83;;
16543;SDS011;8384;47.996;7.786;2023-03-04T01:13:31;59.75;;;53.10;;
16543;SDS011;8384;47.996;7.786;2023-03-04T01:15:57;54.90;;;48.90;;
16543;SDS011;8384;47.996;7.786;2023-03-04T01:18:22;61.27;;;53.90;;
16543;SDS011;8384;47.996;7.786;2023-03-04T01:20:48;58.15;;;51.83;;
16543;SDS011;8384;47.996;7.786;2023-03-04T01:23:13;55.90;;;49.47;;
16543;SDS011;8384;47.996;7.786;2023-03-04T01:25:39;54.20;;;48.50;;
16543;SDS011;8384;47.996;7.786;2023-03-04T01:28:05;56.42;;;50.40;;
16543;SDS011;8384;47.996;7.786;2023-03-04T01:30:30;60.43;;;52.30;;
16543;SDS011;8384;47.996;7.786;2023-03-04T01:32:56;57.08;;;50.75;;
16543;SDS011;8384;47.996;7.786;2023-03-04T01:35:21;56.92;;;50.83;;
16543;SDS011;8384;47.996;7.786;2023-03-04T01:37:47;54.60;;;48.70;;
16543;SDS011;8384;47.996;7.786;2023-03-04T01:40:12;55.10;;;49.03;;
16543;SDS011;8384;47.996;7.786;2023-03-04T01:42:38;53.75;;;48.00;;
16543;SDS011;8384;47.996;7.786;2023-03-04T01:45:04;52.93;;;47.43;;
16543;SDS011;8384;47.996;7.786;2023-03-04T01:47:30;52.25;;;46.75;;
16543;SDS011;8384;47.996;7.786;2023-03-04T01:49:58;52.35;;;46.65;;
16543;SDS011;8384;47.996;7.786;2023-03-04T01:52:27;53.70;;;47.92;;
16543;SDS011;8384;47.996;7.786;2023-03-04T01:54:52;54.72;;;48.80;;
16543;SDS011;8384;47.996;7.786;2023-03-04T01:57:19;53.23;;;47.53;;
16543;SDS011;8384;47.996;7.786;2023-03-04T01:59:47;55.33;;;49.33;;
16543;SDS011;8384;47.996;7.786;2023-03-04T02:02:43;55.70;;;49.53;;
16543;SDS011;8384;47.996;7.786;2023-03-04T02:05:09;57.20;;;50.92;;
16543;SDS011;8384;47.996;7.786;2023-03-04T02:07:35;53.10;;;47.40;;
16543;SDS011;8384;47.996;7.786;2023-03-04T02:10:00;53.00;;;47.25;;
16543;SDS011;8384;47.996;7.786;2023-03-04T02:12:26;53.73;;;47.77;;
16543;SDS011;8384;47.996;7.786;2023-03-04T02:14:51;55.60;;;48.77;;
16543;SDS011;8384;47.996;7.786;2023-03-04T02:17:22;56.50;;;50.40;;
16543;SDS011;8384;47.996;7.786;2023-03-04T02:19:50;55.63;;;49.47;;
16543;SDS011;8384;47.996;7.786;2023-03-04T02:22:24;53.47;;;47.78;;
16543;SDS011;8384;47.996;7.786;2023-03-04T02:24:51;54.30;;;48.43;;
16543;SDS011;8384;47.996;7.786;2023-03-04T02:27:20;51.40;;;45.90;;
16543;SDS011;8384;47.996;7.786;2023-03-04T02:29:46;55.85;;;48.90;;
16543;SDS011;8384;47.996;7.786;2023-03-04T02:32:11;55.20;;;47.85;;
16543;SDS011;8384;47.996;7.786;2023-03-04T02:34:37;52.75;;;47.05;;
16543;SDS011;8384;47.996;7.786;2023-03-04T02:37:09;51.70;;;46.10;;
16543;SDS011;8384;47.996;7.786;2023-03-04T02:39:38;50.80;;;45.43;;
16543;SDS011;8384;47.996;7.786;2023-03-04T02:42:05;51.17;;;45.57;;
16543;SDS011;8384;47.996;7.786;2023-03-04T02:44:32;49.40;;;44.15;;
16543;SDS011;8384;47.996;7.786;2023-03-04T02:46:59;49.38;;;44.08;;
16543;SDS011;8384;47.996;7.786;2023-03-04T02:49:26;51.45;;;45.92;;
16543;SDS011;8384;47.996;7.786;2023-03-04T02:52:04;50.87;;;45.43;;
16543;SDS011;8384;47.996;7.786;2023-03-04T02:54:34;50.42;;;44.92;;
16543;SDS011;8384;47.996;7.786;2023-03-04T02:57:02;50.50;;;45.10;;
16543;SDS011;8384;47.996;7.786;2023-03-04T02:59:30;49.75;;;44.35;;
16543;SDS011;8384;47.996;7.786;2023-03-04T03:01:55;54.20;;;47.60;;
16543;SDS011;8384;47.996;7.786;2023-03-04T03:04:21;53.78;;;47.05;;
16543;SDS011;8384;47.996;7.786;2023-03-04T03:06:47;52.53;;;46.78;;
16543;SDS011;8384;47.996;7.786;2023-03-04T03:09:13;51.23;;;45.70;;
16543;SDS011;8384;47.996;7.786;2023-03-04T03:11:38;52.20;;;46.50;;
16543;SDS011;8384;47.996;7.786;2023-03-04T03:14:03;52.53;;;45.53;;
16543;SDS011;8384;47.996;7.786;2023-03-04T03:16:29;51.08;;;45.45;;
16543;SDS011;8384;47.996;7.786;2023-03-04T03:18:55;50.10;;;44.53;;
16543;SDS011;8384;47.996;7.786;2023-03-04T03:21:20;51.30;;;44.07;;
16543;SDS011;8384;47.996;7.786;2023-03-04T03:23:45;48.72;;;43.42;;
16543;SDS011;8384;47.996;7.786;2023-03-04T03:26:11;48.83;;;43.43;;
16543;SDS011;8384;47.996;7.786;2023-03-04T03:28:36;54.80;;;47.00;;
16543;SDS011;8384;47.996;7.786;2023-03-04T03:31:01;53.63;;;47.03;;
16543;SDS011;8384;47.996;7.786;2023-03-04T03:33:27;52.07;;;45.93;;
16543;SDS011;8384;47.996;7.786;2023-03-04T03:35:52;49.97;;;44.47;;
16543;SDS011;8384;47.996;7.786;2023-03-04T03:38:17;49.50;;;44.10;;
16543;SDS011;8384;47.996;7.786;2023-03-04T03:40:43;50.00;;;44.43;;
16543;SDS011;8384;47.996;7.786;2023-03-04T03:43:08;49.23;;;43.83;;
16543;SDS011;8384;47.996;7.786;2023-03-04T03:45:33;52.70;;;46.40;;
16543;SDS011;8384;47.996;7.786;2023-03-04T03:47:59;51.87;;;46.13;;
16543;SDS011;8384;47.996;7.786;2023-03-04T03:50:24;52.00;;;45.80;;
16543;SDS011;8384;47.996;7.786;2023-03-04T03:52:49;53.60;;;47.75;;
16543;SDS011;8384;47.996;7.786;2023-03-04T03:55:14;51.42;;;45.88;;
16543;SDS011;8384;47.996;7.786;2023-03-04T03:57:40;51.83;;;46.13;;
16543;SDS011;8384;47.996;7.786;2023-03-04T04:00:05;51.43;;;45.13;;
16543;SDS011;8384;47.996;7.786;2023-03-04T04:02:32;57.85;;;49.45;;
16543;SDS011;8384;47.996;7.786;2023-03-04T04:04:57;55.17;;;48.17;;
16543;SDS011;8384;47.996;7.786;2023-03-04T04:07:22;53.87;;;46.83;;
16543;SDS011;8384;47.996;7.786;2023-03-04T04:09:47;50.97;;;45.40;;
16543;SDS011;8384;47.996;7.786;2023-03-04T04:12:13;56.42;;;47.90;;
16543;SDS011;8384;47.996;7.786;2023-03-04T04:14:40;55.67;;;47.03;;
16543;SDS011;8384;47.996;7.786;2023-03-04T04:17:06;48.90;;;42.90;;
16543;SDS011;8384;47.996;7.786;2023-03-04T04:19:31;47.38;;;42.28;;
16543;SDS011;8384;47.996;7.786;2023-03-04T04:21:57;45.03;;;40.13;;
16543;SDS011;8384;47.996;7.786;2023-03-04T04:24:22;45.23;;;40.03;;
16543;SDS011;8384;47.996;7.786;2023-03-04T04:26:47;44.00;;;39.17;;
16543;SDS011;8384;47.996;7.786;2023-03-04T04:29:13;43.60;;;38.80;;
16543;SDS011;8384;47.996;7.786;2023-03-04T04:31:39;45.38;;;39.67;;
16543;SDS011;8384;47.996;7.786;2023-03-04T04:34:04;43.97;;;39.17;;
16543;SDS011;8384;47.996;7.786;2023-03-04T04:36:29;44.57;;;38.77;;
16543;SDS011;8384;47.996;7.786;2023-03-04T04:38:54;42.30;;;37.55;;
16543;SDS011;8384;47.996;7.786;2023-03-04T04:41:22;41.83;;;37.33;;
16543;SDS011;8384;47.996;7.786;2023-03-04T04:43:50;41.22;;;36.72;;
16543;SDS011;8384;47.996;7.786;2023-03-04T04:46:16;41.03;;;36.65;;
16543;SDS011;8384;47.996;7.786;2023-03-04T04:48:42;44.30;;;39.53;;
16543;SDS011;8384;47.996;7.786;2023-03-04T04:51:07;46.03;;;40.90;;
16543;SDS011;8384;47.996;7.786;2023-03-04T04:53:33;44.30;;;38.63;;
16543;SDS011;8384;47.996;7.786;2023-03-04T04:55:58;43.73;;;39.03;;
16543;SDS011;8384;47.996;7.786;2023-03-04T04:58:24;44.45;;;39.50;;
16543;SDS011;8384;47.996;7.786;2023-03-04T05:00:49;44.60;;;39.67;;
16543;SDS011;8384;47.996;7.786;2023-03-04T05:03:14;43.27;;;38.47;;
16543;SDS011;8384;47.996;7.786;2023-03-04T05:05:40;44.40;;;38.90;;
16543;SDS011;8384;47.996;7.786;2023-03-04T05:08:06;46.78;;;40.50;;
16543;SDS011;8384;47.996;7.786;2023-03-04T05:10:31;55.50;;;45.27;;
16543;SDS011;8384;47.996;7.786;2023-03-04T05:12:56;52.20;;;45.90;;
16543;SDS011;8384;47.996;7.786;2023-03-04T05:15:22;55.23;;;47.53;;
16543;SDS011;8384;47.996;7.786;2023-03-04T05:17:47;53.63;;;46.83;;
16543;SDS011;8384;47.996;7.786;2023-03-04T05:20:12;53.37;;;46.13;;
16543;SDS011;8384;47.996;7.786;2023-03-04T05:22:38;47.28;;;41.65;;
16543;SDS011;8384;47.996;7.786;2023-03-04T05:25:03;45.13;;;40.07;;
16543;SDS011;8384;47.996;7.786;2023-03-04T05:27:29;42.50;;;37.90;;
16543;SDS011;8384;47.996;7.786;2023-03-04T05:29:54;42.40;;;37.83;;
16543;SDS011;8384;47.996;7.786;2023-03-04T05:32:23;43.20;;;38.50;;
16543;SDS011;8384;47.996;7.786;2023-03-04T05:34:48;42.80;;;38.00;;
16543;SDS011;8384;47.996;7.786;2023-03-04T05:37:14;42.53;;;37.93;;
16543;SDS011;8384;47.996;7.786;2023-03-04T05:39:39;44.63;;;39.83;;
16543;SDS011;8384;47.996;7.786;2023-03-04T05:42:04;43.63;;;38.83;;
16543;SDS011;8384;47.996;7.786;2023-03-04T05:44:29;42.90;;;38.30;;
16543;SDS011;8384;47.996;7.786;2023-03-04T05:46:55;42.37;;;37.83;;
16543;SDS011;8384;47.996;7.786;2023-03-04T05:49:20;43.20;;;38.57;;
16543;SDS011;8384;47.996;7.786;2023-03-04T05:51:45;42.63;;;38.03;;
16543;SDS011;8384;47.996;7.786;2023-03-04T05:54:11;42.07;;;37.43;;
16543;SDS011;8384;47.996;7.786;2023-03-04T05:56:36;42.72;;;37.85;;
16543;SDS011;8384;47.996;7.786;2023-03-04T05:59:01;42.42;;;37.50;;
16543;SDS011;8384;47.996;7.786;2023-03-04T06:01:26;43.33;;;38.57;;
16543;SDS011;8384;47.996;7.786;2023-03-04T06:03:52;43.70;;;38.83;;
16543;SDS011;8384;47.996;7.786;2023-03-04T06:06:17;48.67;;;41.77;;
16543;SDS011;8384;47.996;7.786;2023-03-04T06:08:42;47.53;;;41.63;;
16543;SDS011;8384;47.996;7.786;2023-03-04T06:11:07;50.00;;;42.13;;
16543;SDS011;8384;47.996;7.786;2023-03-04T06:13:33;45.00;;;39.63;;
16543;SDS011;8384;47.996;7.786;2023-03-04T06:15:58;48.33;;;41.47;;
16543;SDS011;8384;47.996;7.786;2023-03-04T06:18:25;46.83;;;40.90;;
16543;SDS011;8384;47.996;7.786;2023-03-04T06:20:54;54.30;;;44.83;;
16543;SDS011;8384;47.996;7.786;2023-03-04T06:23:23;52.75;;;44.95;;
16543;SDS011;8384;47.996;7.786;2023-03-04T06:25:55;50.22;;;44.47;;
16543;SDS011;8384;47.996;7.786;2023-03-04T06:28:22;51.67;;;43.70;;
16543;SDS011;8384;47.996;7.786;2023-03-04T06:30:47;50.67;;;42.85;;
16543;SDS011;8384;47.996;7.786;2023-03-04T06:33:15;49.45;;;43.92;;
16543;SDS011;8384;47.996;7.786;2023-03-04T06:35:41;45.47;;;40.47;;
16543;SDS011;8384;47.996;7.786;2023-03-04T06:38:06;46.60;;;41.47;;
16543;SDS011;8384;47.996;7.786;2023-03-04T06:40:31;44.93;;;40.03;;
16543;SDS011;8384;47.996;7.786;2023-03-04T06:42:56;49.77;;;43.57;;
16543;SDS011;8384;47.996;7.786;2023-03-04T06:45:22;49.43;;;43.73;;
16543;SDS011;8384;47.996;7.786;2023-03-04T06:47:47;51.67;;;44.70;;
16543;SDS011;8384;47.996;7.786;2023-03-04T06:50:12;52.67;;;45.97;;
16543;SDS011;8384;47.996;7.786;2023-03-04T06:52:38;48.53;;;43.22;;
16543;SDS011;8384;47.996;7.786;2023-03-04T06:55:04;48.87;;;43.53;;
16543;SDS011;8384;47.996;7.786;2023-03-04T06:57:30;48.70;;;43.40;;
16543;SDS011;8384;47.996;7.786;2023-03-04T06:59:55;49.28;;;43.88;;
16543;SDS011;8384;47.996;7.786;2023-03-04T07:02:20;48.33;;;43.00;;
16543;SDS011;8384;47.996;7.786;2023-03-04T07:04:46;47.60;;;42.43;;
16543;SDS011;8384;47.996;7.786;2023-03-04T07:07:11;50.70;;;44.03;;
16543;SDS011;8384;47.996;7.786;2023-03-04T07:09:37;48.97;;;43.50;;
16543;SDS011;8384;47.996;7.786;2023-03-04T07:12:02;47.17;;;42.07;;
16543;SDS011;8384;47.996;7.786;2023-03-04T07:14:28;49.93;;;42.37;;
16543;SDS011;8384;47.996;7.786;2023-03-04T07:16:53;48.23;;;43.03;;
16543;SDS011;8384;47.996;7.786;2023-03-04T07:19:19;47.47;;;42.40;;
16543;SDS011;8384;47.996;7.786;2023-03-04T07:21:44;47.13;;;41.57;;
16543;SDS011;8384;47.996;7.786;2023-03-04T07:24:10;49.83;;;42.70;;
16543;SDS011;8384;47.996;7.786;2023-03-04T07:26:36;46.60;;;41.35;;
16543;SDS011;8384;47.996;7.786;2023-03-04T07:29:02;49.20;;;41.92;;
16543;SDS011;8384;47.996;7.786;2023-03-04T07:31:29;51.92;;;43.33;;
16543;SDS011;8384;47.996;7.786;2023-03-04T07:34:00;53.25;;;45.08;;
16543;SDS011;8384;47.996;7.786;2023-03-04T07:36:27;50.03;;;44.33;;
16543;SDS011;8384;47.996;7.786;2023-03-04T07:38:53;48.20;;;42.43;;
16543;SDS011;8384;47.996;7.786;2023-03-04T07:41:19;47.90;;;41.70;;
16543;SDS011;8384;47.996;7.786;2023-03-04T07:43:45;49.30;;;41.75;;
16543;SDS011;8384;47.996;7.786;2023-03-04T07:46:11;48.40;;;42.43;;
16543;SDS011;8384;47.996;7.786;2023-03-04T07:48:36;47.20;;;41.83;;
16543;SDS011;8384;47.996;7.786;2023-03-04T07:51:02;48.95;;;41.08;;
16543;SDS011;8384;47.996;7.786;2023-03-04T07:53:36;48.15;;;41.45;;
16543;SDS011;8384;47.996;7.786;2023-03-04T07:56:02;47.65;;;41.40;;
16543;SDS011;8384;47.996;7.786;2023-03-04T07:58:28;52.35;;;44.03;;
16543;SDS011;8384;47.996;7.786;2023-03-04T08:00:53;50.17;;;42.33;;
16543;SDS011;8384;47.996;7.786;2023-03-04T08:03:19;53.37;;;43.33;;
16543;SDS011;8384;47.996;7.786;2023-03-04T08:05:44;55.53;;;44.10;;
16543;SDS011;8384;47.996;7.786;2023-03-04T08:08:09;59.10;;;45.83;;
16543;SDS011;8384;47.996;7.786;2023-03-04T08:10:35;59.50;;;45.10;;
16543;SDS011;8384;47.996;7.786;2023-03-04T08:13:00;58.53;;;44.87;;
16543;SDS011;8384;47.996;7.786;2023-03-04T08:15:25;60.43;;;46.37;;
16543;SDS011;8384;47.996;7.786;2023-03-04T08:17:51;60.67;;;46.40;;
16543;SDS011;8384;47.996;7.786;2023-03-04T08:20:17;66.88;;;48.60;;
16543;SDS011;8384;47.996;7.786;2023-03-04T08:22:42;68.17;;;49.07;;
16543;SDS011;8384;47.996;7.786;2023-03-04T08:25:07;70.70;;;51.07;;
16543;SDS011;8384;47.996;7.786;2023-03-04T08:27:33;74.60;;;52.15;;
16543;SDS011;8384;47.996;7.786;2023-03-04T08:29:58;70.90;;;50.53;;
16543;SDS011;8384;47.996;7.786;2023-03-04T08:32:24;66.03;;;48.77;;
16543;SDS011;8384;47.996;7.786;2023-03-04T08:34:49;68.53;;;51.13;;
16543;SDS011;8384;47.996;7.786;2023-03-04T08:37:14;69.33;;;51.13;;
16543;SDS011;8384;47.996;7.786;2023-03-04T08:39:40;66.45;;;48.50;;
16543;SDS011;8384;47.996;7.786;2023-03-04T08:42:05;64.20;;;49.17;;
16543;SDS011;8384;47.996;7.786;2023-03-04T08:44:30;65.17;;;49.47;;
16543;SDS011;8384;47.996;7.786;2023-03-04T08:46:55;68.83;;;51.30;;
16543;SDS011;8384;47.996;7.786;2023-03-04T08:49:21;67.77;;;50.93;;
16543;SDS011;8384;47.996;7.786;2023-03-04T08:51:46;71.37;;;51.97;;
16543;SDS011;8384;47.996;7.786;2023-03-04T08:54:11;70.77;;;52.13;;
16543;SDS011;8384;47.996;7.786;2023-03-04T08:56:37;73.13;;;53.13;;
16543;SDS011;8384;47.996;7.786;2023-03-04T08:59:02;77.63;;;55.40;;
16543;SDS011;8384;47.996;7.786;2023-03-04T09:01:28;73.05;;;53.45;;
16543;SDS011;8384;47.996;7.786;2023-03-04T09:03:53;78.23;;;55.70;;
16543;SDS011;8384;47.996;7.786;2023-03-04T09:06:19;78.63;;;55.40;;
16543;SDS011;8384;47.996;7.786;2023-03-04T09:08:44;71.97;;;53.27;;
16543;SDS011;8384;47.996;7.786;2023-03-04T09:11:10;73.18;;;52.97;;
16543;SDS011;8384;47.996;7.786;2023-03-04T09:13:36;71.47;;;52.97;;
16543;SDS011;8384;47.996;7.786;2023-03-04T09:16:02;72.68;;;53.50;;
16543;SDS011;8384;47.996;7.786;2023-03-04T09:18:27;74.32;;;53.58;;
16543;SDS011;8384;47.996;7.786;2023-03-04T09:20:53;74.67;;;54.13;;
16543;SDS011;8384;47.996;7.786;2023-03-04T09:23:18;74.33;;;52.83;;
16543;SDS011;8384;47.996;7.786;2023-03-04T09:25:44;67.55;;;50.95;;
16543;SDS011;8384;47.996;7.786;2023-03-04T09:28:11;68.68;;;50.92;;
16543;SDS011;8384;47.996;7.786;2023-03-04T09:30:37;70.30;;;51.72;;
16543;SDS011;8384;47.996;7.786;2023-03-04T09:33:03;70.75;;;52.13;;
16543;SDS011;8384;47.996;7.786;2023-03-04T09:35:28;71.67;;;52.13;;
16543;SDS011;8384;47.996;7.786;2023-03-04T09:37:54;72.25;;;52.15;;
16543;SDS011;8384;47.996;7.786;2023-03-04T09:40:21;75.15;;;53.63;;
16543;SDS011;8384;47.996;7.786;2023-03-04T09:42:51;76.30;;;53.92;;
16543;SDS011;8384;47.996;7.786;2023-03-04T09:45:21;77.75;;;55.95;;
16543;SDS011;8384;47.996;7.786;2023-03-04T09:47:49;73.25;;;54.40;;
16543;SDS011;8384;47.996;7.786;2023-03-04T09:50:17;83.35;;;57.00;;
16543;SDS011;8384;47.996;7.786;2023-03-04T09:55:38;75.90;;;53.78;;
16543;SDS011;8384;47.996;7.786;2023-03-04T09:58:29;66.20;;;50.00;;
16543;SDS011;8384;47.996;7.786;2023-03-04T10:01:02;69.03;;;51.70;;
16543;SDS011;8384;47.996;7.786;2023-03-04T10:03:53;75.18;;;53.92;;
16543;SDS011;8384;47.996;7.786;2023-03-04T10:06:23;72.60;;;53.60;;
16543;SDS011;8384;47.996;7.786;2023-03-04T10:08:49;72.75;;;54.15;;
16543;SDS011;8384;47.996;7.786;2023-03-04T10:13:50;72.07;;;52.65;;
16543;SDS011;8384;47.996;7.786;2023-03-04T10:16:18;72.55;;;52.13;;
16543;SDS011;8384;47.996;7.786;2023-03-04T10:19:29;70.07;;;52.03;;
16543;SDS011;8384;47.996;7.786;2023-03-04T10:21:39;71.63;;;53.70;;
16543;SDS011;8384;47.996;7.786;2023-03-04T10:24:10;70.82;;;52.00;;
16543;SDS011;8384;47.996;7.786;2023-03-04T10:26:37;62.72;;;48.97;;
16543;SDS011;8384;47.996;7.786;2023-03-04T10:29:03;67.50;;;51.08;;
16543;SDS011;8384;47.996;7.786;2023-03-04T10:31:35;64.63;;;50.05;;
16543;SDS011;8384;47.996;7.786;2023-03-04T10:34:05;61.53;;;49.00;;
16543;SDS011;8384;47.996;7.786;2023-03-04T10:39:00;60.30;;;48.00;;
16543;SDS011;8384;47.996;7.786;2023-03-04T10:41:30;60.00;;;47.93;;
16543;SDS011;8384;47.996;7.786;2023-03-04T10:46:37;61.22;;;49.22;;
16543;SDS011;8384;47.996;7.786;2023-03-04T10:49:03;61.78;;;49.33;;
16543;SDS011;8384;47.996;7.786;2023-03-04T10:51:29;60.73;;;48.40;;
16543;SDS011;8384;47.996;7.786;2023-03-04T10:54:00;56.78;;;46.47;;
16543;SDS011;8384;47.996;7.786;2023-03-04T10:56:33;58.10;;;47.03;;
16543;SDS011;8384;47.996;7.786;2023-03-04T10:59:22;61.53;;;48.13;;
16543;SDS011;8384;47.996;7.786;2023-03-04T11:02:00;58.33;;;47.35;;
16543;SDS011;8384;47.996;7.786;2023-03-04T11:04:35;53.53;;;44.30;;
16543;SDS011;8384;47.996;7.786;2023-03-04T11:07:00;52.70;;;44.65;;
16543;SDS011;8384;47.996;7.786;2023-03-04T11:09:26;51.73;;;44.30;;
16543;SDS011;8384;47.996;7.786;2023-03-04T11:11:53;53.28;;;44.97;;
16543;SDS011;8384;47.996;7.786;2023-03-04T11:19:49;52.20;;;44.87;;
16543;SDS011;8384;47.996;7.786;2023-03-04T11:22:19;51.07;;;44.37;;
16543;SDS011;8384;47.996;7.786;2023-03-04T11:24:48;48.85;;;43.47;;
16543;SDS011;8384;47.996;7.786;2023-03-04T11:27:21;49.63;;;43.43;;
16543;SDS011;8384;47.996;7.786;2023-03-04T11:30:02;49.63;;;43.20;;
16543;SDS011;8384;47.996;7.786;2023-03-04T11:32:48;48.25;;;42.85;;
16543;SDS011;8384;47.996;7.786;2023-03-04T11:35:21;48.25;;;42.50;;
16543;SDS011;8384;47.996;7.786;2023-03-04T11:40:54;48.42;;;43.13;;
16543;SDS011;8384;47.996;7.786;2023-03-04T11:43:28;48.38;;;43.10;;
16543;SDS011;8384;47.996;7.786;2023-03-04T11:48:44;49.35;;;43.95;;
16543;SDS011;8384;47.996;7.786;2023-03-04T11:54:31;50.15;;;43.80;;
16543;SDS011;8384;47.996;7.786;2023-03-04T11:57:08;49.97;;;42.97;;
16543;SDS011;8384;47.996;7.786;2023-03-04T12:02:42;46.10;;;41.10;;
16543;SDS011;8384;47.996;7.786;2023-03-04T12:05:25;48.75;;;43.08;;
16543;SDS011;8384;47.996;7.786;2023-03-04T12:19:00;47.90;;;42.65;;
16543;SDS011;8384;47.996;7.786;2023-03-04T12:29:51;47.43;;;42.13;;
16543;SDS011;8384;47.996;7.786;2023-03-04T12:35:03;47.17;;;42.08;;
16543;SDS011;8384;47.996;7.786;2023-03-04T12:37:49;47.07;;;41.97;;
16543;SDS011;8384;47.996;7.786;2023-03-04T12:43:07;46.78;;;41.80;;
16543;SDS011;8384;47.996;7.786;2023-03-04T12:46:07;46.17;;;41.28;;
16543;SDS011;8384;47.996;7.786;2023-03-04T12:56:49;46.20;;;41.37;;
16543;SDS011;8384;47.996;7.786;2023-03-04T12:59:18;45.10;;;40.45;;
16543;SDS011;8384;47.996;7.786;2023-03-04T13:02:00;44.88;;;40.15;;
16543;SDS011;8384;47.996;7.786;2023-03-04T13:04:49;44.58;;;39.95;;
16543;SDS011;8384;47.996;7.786;2023-03-04T13:10:18;42.93;;;38.47;;
16543;SDS011;8384;47.996;7.786;2023-03-04T13:12:51;41.80;;;37.50;;
16543;SDS011;8384;47.996;7.786;2023-03-04T13:17:51;42.42;;;37.97;;
16543;SDS011;8384;47.996;7.786;2023-03-04T13:22:45;41.30;;;37.10;;
16543;SDS011;8384;47.996;7.786;2023-03-04T13:32:55;38.33;;;34.42;;
16543;SDS011;8384;47.996;7.786;2023-03-04T13:43:44;36.20;;;32.70;;
16543;SDS011;8384;47.996;7.786;2023-03-04T13:48:42;34.67;;;31.42;;
16543;SDS011;8384;47.996;7.786;2023-03-04T13:51:13;35.67;;;32.25;;
16543;SDS011;8384;47.996;7.786;2023-03-04T14:01:32;36.58;;;32.97;;
16543;SDS011;8384;47.996;7.786;2023-03-04T14:04:00;37.45;;;33.75;;
16543;SDS011;8384;47.996;7.786;2023-03-04T14:06:34;36.17;;;32.47;;
16543;SDS011;8384;47.996;7.786;2023-03-04T14:09:13;37.67;;;33.92;;
16543;SDS011;8384;47.996;7.786;2023-03-04T14:11:41;36.10;;;32.40;;
16543;SDS011;8384;47.996;7.786;2023-03-04T14:14:10;35.97;;;32.28;;
16543;SDS011;8384;47.996;7.786;2023-03-04T14:16:38;35.72;;;32.13;;
16543;SDS011;8384;47.996;7.786;2023-03-04T14:19:43;36.33;;;32.63;;
16543;SDS011;8384;47.996;7.786;2023-03-04T14:27:31;34.90;;;31.30;;
16543;SDS011;8384;47.996;7.786;2023-03-04T14:30:00;32.60;;;29.30;;
16543;SDS011;8384;47.996;7.786;2023-03-04T14:32:29;32.15;;;28.90;;
16543;SDS011;8384;47.996;7.786;2023-03-04T14:34:56;32.90;;;29.40;;
16543;SDS011;8384;47.996;7.786;2023-03-04T14:37:25;33.97;;;30.38;;
16543;SDS011;8384;47.996;7.786;2023-03-04T14:39:58;35.03;;;31.33;;
16543;SDS011;8384;47.996;7.786;2023-03-04T14:42:25;34.13;;;30.73;;
16543;SDS011;8384;47.996;7.786;2023-03-04T14:44:57;35.95;;;32.33;;
16543;SDS011;8384;47.996;7.786;2023-03-04T14:47:33;34.83;;;31.33;;
16543;SDS011;8384;47.996;7.786;2023-03-04T14:50:05;33.55;;;30.17;;
16543;SDS011;8384;47.996;7.786;2023-03-04T14:55:21;34.38;;;30.88;;
16543;SDS011;8384;47.996;7.786;2023-03-04T14:57:50;32.60;;;29.23;;
16543;SDS011;8384;47.996;7.786;2023-03-04T15:00:31;34.53;;;30.90;;
16543;SDS011;8384;47.996;7.786;2023-03-04T15:06:04;35.03;;;31.50;;
16543;SDS011;8384;47.996;7.786;2023-03-04T15:08:33;35.05;;;31.45;;
16543;SDS011;8384;47.996;7.786;2023-03-04T15:11:01;36.50;;;32.63;;
16543;SDS011;8384;47.996;7.786;2023-03-04T15:14:02;35.55;;;31.83;;
16543;SDS011;8384;47.996;7.786;2023-03-04T15:16:22;36.25;;;32.42;;
16543;SDS011;8384;47.996;7.786;2023-03-04T15:21:31;37.63;;;33.70;;
16543;SDS011;8384;47.996;7.786;2023-03-04T15:23:57;38.20;;;34.15;;
16543;SDS011;8384;47.996;7.786;2023-03-04T15:26:23;36.78;;;32.97;;
16543;SDS011;8384;47.996;7.786;2023-03-04T15:28:48;39.10;;;34.90;;
16543;SDS011;8384;47.996;7.786;2023-03-04T15:31:17;38.03;;;33.93;;
16543;SDS011;8384;47.996;7.786;2023-03-04T15:33:44;39.00;;;34.90;;
16543;SDS011;8384;47.996;7.786;2023-03-04T15:36:11;39.42;;;35.08;;
16543;SDS011;8384;47.996;7.786;2023-03-04T15:38:40;39.65;;;35.45;;
16543;SDS011;8384;47.996;7.786;2023-03-04T15:41:08;40.35;;;36.05;;
16543;SDS011;8384;47.996;7.786;2023-03-04T15:43:36;40.55;;;36.25;;
16543;SDS011;8384;47.996;7.786;2023-03-04T15:46:02;41.00;;;36.53;;
16543;SDS011;8384;47.996;7.786;2023-03-04T15:48:27;39.40;;;35.20;;
16543;SDS011;8384;47.996;7.786;2023-03-04T15:50:54;40.33;;;35.90;;
16543;SDS011;8384;47.996;7.786;2023-03-04T15:56:04;41.40;;;36.85;;
16543;SDS011;8384;47.996;7.786;2023-03-04T15:58:34;40.70;;;36.50;;
16543;SDS011;8384;47.996;7.786;2023-03-04T16:01:00;39.90;;;35.60;;
16543;SDS011;8384;47.996;7.786;2023-03-04T16:03:26;40.35;;;35.90;;
16543;SDS011;8384;47.996;7.786;2023-03-04T16:05:51;40.85;;;36.47;;
16543;SDS011;8384;47.996;7.786;2023-03-04T16:08:18;41.15;;;36.75;;
16543;SDS011;8384;47.996;7.786;2023-03-04T16:10:45;40.92;;;36.45;;
16543;SDS011;8384;47.996;7.786;2023-03-04T16:13:15;40.65;;;36.25;;
16543;SDS011;8384;47.996;7.786;2023-03-04T16:15:42;40.35;;;36.00;;
16543;SDS011;8384;47.996;7.786;2023-03-04T16:18:08;41.22;;;36.72;;
16543;SDS011;8384;47.996;7.786;2023-03-04T16:20:37;40.88;;;36.30;;
16543;SDS011;8384;47.996;7.786;2023-03-04T16:23:04;41.20;;;36.80;;
16543;SDS011;8384;47.996;7.786;2023-03-04T16:25:34;41.08;;;36.63;;
16543;SDS011;8384;47.996;7.786;2023-03-04T16:27:59;41.78;;;37.20;;